Time;durP1;ratioP1;P1;durP2;ratioP2;P2;SDS_P1;SDS_P2;PMS_P1;PMS_P2;Temp;Humidity;BMP_temperature;BMP_pressure;BME280_temperature;BME280_humidity;BME280_pressure;Samples;Min_cycle;Max_cycle;Signal;HPM_P1;HPM_P2
2022/10/23 00:01:55;;;;;;;14.27;7.93;;;10.80;99.90;;;;;;5091163;28;20479;-74
2022/10/23 00:04:24;;;;;;;14.07;8.07;;;10.70;99.90;;;;;;5106357;28;20456;-74
2022/10/23 00:06:52;;;;;;;10.37;7.93;;;10.70;99.90;;;;;;5100718;28;20486;-74
2022/10/23 00:09:21;;;;;;;19.60;8.80;;;10.60;99.90;;;;;;5106030;28;20451;-75
2022/10/23 00:11:49;;;;;;;11.77;7.80;;;10.60;99.90;;;;;;5110084;28;20489;-74
2022/10/23 00:14:17;;;;;;;15.93;7.80;;;10.60;99.90;;;;;;5115817;28;20454;-74
2022/10/23 00:16:44;;;;;;;16.97;8.03;;;10.50;99.90;;;;;;5111788;28;20822;-74
2022/10/23 00:19:11;;;;;;;16.80;8.30;;;10.50;99.90;;;;;;5094967;28;20484;-74
2022/10/23 00:21:39;;;;;;;20.37;8.00;;;10.40;99.90;;;;;;5097009;28;20471;-74
2022/10/23 00:24:08;;;;;;;18.67;7.77;;;10.40;99.90;;;;;;5104241;28;20491;-74
2022/10/23 00:26:37;;;;;;;18.07;7.10;;;10.40;99.90;;;;;;5104553;28;20454;-74
2022/10/23 00:29:03;;;;;;;13.43;7.57;;;10.40;99.90;;;;;;5098708;28;20450;-74
2022/10/23 00:31:30;;;;;;;12.43;6.83;;;10.40;99.90;;;;;;5114840;28;20508;-75
2022/10/23 00:33:57;;;;;;;9.70;6.43;;;10.30;99.90;;;;;;5115304;28;20815;-74
2022/10/23 00:36:24;;;;;;;21.93;7.33;;;10.30;99.90;;;;;;5114260;28;20465;-74
2022/10/23 00:38:51;;;;;;;9.30;6.80;;;10.30;99.90;;;;;;5102663;28;20447;-74
2022/10/23 00:41:21;;;;;;;11.03;6.50;;;10.30;99.90;;;;;;5094429;28;20503;-74
2022/10/23 00:44:04;;;;;;;18.27;6.37;;;10.30;99.90;;;;;;5095091;28;20451;-74
2022/10/23 00:46:31;;;;;;;17.23;6.83;;;10.20;99.90;;;;;;5094548;28;20461;-74
2022/10/23 00:48:58;;;;;;;9.30;7.00;;;10.20;99.90;;;;;;5100489;28;20956;-74
2022/10/23 00:51:27;;;;;;;7.43;6.00;;;10.20;99.90;;;;;;5094016;28;20459;-75
2022/10/23 00:53:57;;;;;;;7.37;6.37;;;10.20;99.90;;;;;;5102035;28;20452;-74
2022/10/23 00:56:26;;;;;;;8.37;7.30;;;10.10;99.90;;;;;;5106047;28;20476;-74
2022/10/23 00:58:53;;;;;;;14.37;7.13;;;10.10;99.90;;;;;;5113093;27;20820;-74
2022/10/23 01:01:23;;;;;;;11.83;6.87;;;10.10;99.90;;;;;;5114155;28;20485;-74
2022/10/23 01:03:50;;;;;;;9.37;6.90;;;10.10;99.90;;;;;;5114679;28;20453;-74
2022/10/23 01:06:27;;;;;;;11.30;6.83;;;10.10;99.90;;;;;;5108273;28;20455;-74
2022/10/23 01:09:01;;;;;;;20.23;7.10;;;10.10;99.90;;;;;;5095528;28;20451;-74
2022/10/23 01:11:38;;;;;;;18.33;7.57;;;10.10;99.90;;;;;;5094624;28;20466;-74
2022/10/23 01:14:17;;;;;;;10.77;7.27;;;10.10;99.90;;;;;;5104842;28;20507;-74
2022/10/23 01:16:51;;;;;;;44.63;8.20;;;10.10;99.90;;;;;;5102899;28;20510;-74
2022/10/23 01:19:25;;;;;;;15.13;7.17;;;10.10;99.90;;;;;;5097742;28;20507;-74
2022/10/23 01:22:01;;;;;;;21.60;7.20;;;10.10;99.90;;;;;;5092603;28;20471;-74
2022/10/23 01:24:39;;;;;;;49.17;8.87;;;10.10;99.90;;;;;;5093751;28;20447;-75
2022/10/23 01:27:20;;;;;;;15.40;7.00;;;10.00;99.90;;;;;;5105623;28;20454;-74
2022/10/23 01:29:51;;;;;;;85.87;10.70;;;10.00;99.90;;;;;;5107684;28;20448;-73
2022/10/23 01:32:27;;;;;;;48.23;8.30;;;10.00;99.90;;;;;;5097635;28;20470;-74
2022/10/23 01:35:02;;;;;;;29.67;7.50;;;9.90;99.90;;;;;;5111989;28;20451;-75
2022/10/23 01:37:35;;;;;;;19.67;7.77;;;10.00;99.90;;;;;;5093159;28;20447;-74
2022/10/23 01:40:04;;;;;;;22.97;7.90;;;10.00;99.90;;;;;;5095333;28;20487;-74
2022/10/23 01:42:36;;;;;;;86.40;10.07;;;10.00;99.90;;;;;;5113406;28;20470;-74
2022/10/23 01:45:08;;;;;;;24.27;7.30;;;10.00;99.90;;;;;;5112920;27;20450;-74
2022/10/23 01:47:36;;;;;;;11.03;7.23;;;10.10;99.90;;;;;;5108419;28;20512;-74
2022/10/23 01:50:05;;;;;;;20.17;6.73;;;10.10;99.90;;;;;;5102445;28;20974;-74
2022/10/23 01:52:32;;;;;;;18.60;7.70;;;10.10;99.90;;;;;;5092972;28;20497;-74
2022/10/23 01:55:01;;;;;;;19.30;8.30;;;10.10;99.90;;;;;;5094130;28;20448;-74
2022/10/23 01:57:32;;;;;;;16.63;8.20;;;10.10;99.90;;;;;;5105933;28;20445;-74
2022/10/23 02:00:03;;;;;;;12.97;7.67;;;10.10;99.90;;;;;;5095743;28;20475;-74
2022/10/23 02:02:33;;;;;;;10.70;7.90;;;10.10;99.90;;;;;;5105974;28;20472;-74
2022/10/23 02:05:03;;;;;;;14.83;7.80;;;10.10;99.90;;;;;;5096526;28;20570;-74
2022/10/23 02:07:30;;;;;;;16.30;7.47;;;10.10;99.90;;;;;;5106056;28;20452;-74
2022/10/23 02:09:57;;;;;;;17.13;7.50;;;10.10;99.90;;;;;;5092840;28;20455;-74
2022/10/23 02:12:33;;;;;;;20.30;7.43;;;10.10;99.90;;;;;;5092477;28;20471;-75
2022/10/23 02:15:09;;;;;;;15.13;8.00;;;10.10;99.90;;;;;;5092856;28;20443;-74
2022/10/23 02:17:47;;;;;;;12.20;7.80;;;10.00;99.90;;;;;;5099056;28;20457;-74
2022/10/23 02:20:22;;;;;;;23.13;7.40;;;10.00;99.90;;;;;;5092713;28;20531;-75
2022/10/23 02:22:56;;;;;;;8.80;7.60;;;10.00;99.90;;;;;;5092484;28;21099;-75
2022/10/23 02:25:30;;;;;;;14.43;7.90;;;10.00;99.90;;;;;;5092593;28;20458;-74
2022/10/23 02:28:00;;;;;;;12.30;9.00;;;10.00;99.90;;;;;;5110266;28;20455;-75
2022/10/23 02:30:30;;;;;;;13.23;8.90;;;10.00;99.90;;;;;;5102705;28;20455;-74
2022/10/23 02:32:58;;;;;;;14.30;8.77;;;10.00;99.90;;;;;;5092550;28;20592;-74
2022/10/23 02:35:25;;;;;;;10.10;8.17;;;10.00;99.90;;;;;;5107267;28;20455;-74
2022/10/23 02:37:53;;;;;;;14.93;8.50;;;10.00;99.90;;;;;;5101200;28;21019;-74
2022/10/23 02:40:20;;;;;;;8.83;7.50;;;10.00;99.90;;;;;;5112915;28;21041;-74
2022/10/23 02:42:54;;;;;;;10.20;8.00;;;10.00;99.90;;;;;;5112331;28;20473;-74
2022/10/23 02:45:30;;;;;;;11.00;8.03;;;10.00;99.90;;;;;;5105026;28;20453;-74
2022/10/23 02:48:03;;;;;;;12.80;7.47;;;10.00;99.90;;;;;;5111101;28;20516;-74
2022/10/23 02:50:37;;;;;;;12.20;6.80;;;10.00;99.90;;;;;;5112674;27;20875;-74
2022/10/23 02:53:10;;;;;;;13.73;7.00;;;10.00;99.90;;;;;;5112682;28;20526;-74
2022/10/23 02:55:53;;;;;;;8.40;7.20;;;10.00;99.90;;;;;;5108575;28;20466;-74
2022/10/23 02:58:27;;;;;;;12.00;7.10;;;10.00;99.90;;;;;;5100888;28;20462;-74
2022/10/23 03:01:00;;;;;;;15.93;6.80;;;10.00;99.90;;;;;;5091982;28;20477;-74
2022/10/23 03:03:31;;;;;;;10.30;6.47;;;10.00;99.90;;;;;;5092241;28;20527;-74
2022/10/23 03:05:58;;;;;;;7.20;6.03;;;10.00;99.90;;;;;;5092234;28;20447;-74
2022/10/23 03:08:25;;;;;;;7.60;6.37;;;9.90;99.90;;;;;;5094161;28;20455;-74
2022/10/23 03:10:51;;;;;;;15.53;6.00;;;10.00;99.90;;;;;;5099146;28;20450;-74
2022/10/23 03:13:18;;;;;;;7.03;5.63;;;10.00;99.90;;;;;;5111074;28;20478;-74
2022/10/23 03:15:45;;;;;;;10.23;6.00;;;10.00;99.90;;;;;;5110969;28;20455;-75
2022/10/23 03:18:13;;;;;;;10.17;6.03;;;10.00;99.90;;;;;;5099962;28;20456;-74
2022/10/23 03:20:39;;;;;;;8.60;6.60;;;9.90;99.90;;;;;;5091633;28;20509;-75
2022/10/23 03:23:06;;;;;;;5.83;5.33;;;9.90;99.90;;;;;;5091680;28;20467;-74
2022/10/23 03:25:33;;;;;;;9.87;5.97;;;9.90;99.90;;;;;;5109189;28;20526;-74
2022/10/23 03:27:59;;;;;;;9.23;6.90;;;9.90;99.90;;;;;;5098995;28;20450;-75
2022/10/23 03:30:26;;;;;;;7.33;5.73;;;9.90;99.90;;;;;;5093270;28;20531;-75
2022/10/23 03:32:53;;;;;;;6.70;6.00;;;9.90;99.90;;;;;;5091836;28;20463;-75
2022/10/23 03:35:21;;;;;;;7.80;6.30;;;9.90;99.90;;;;;;5091573;28;20451;-75
2022/10/23 03:37:47;;;;;;;13.40;6.13;;;9.80;99.90;;;;;;5093815;28;20459;-75
2022/10/23 03:40:14;;;;;;;6.47;5.80;;;9.80;99.90;;;;;;5111601;28;20482;-75
2022/10/23 03:42:41;;;;;;;8.80;6.03;;;9.80;99.90;;;;;;5092714;28;21000;-75
2022/10/23 03:45:09;;;;;;;8.67;6.60;;;9.70;99.90;;;;;;5097918;28;20980;-75
2022/10/23 03:47:39;;;;;;;7.10;6.43;;;9.80;99.90;;;;;;5113502;28;20884;-74
2022/10/23 03:50:07;;;;;;;9.00;6.40;;;9.80;99.90;;;;;;5117951;27;20455;-74
2022/10/23 03:52:35;;;;;;;6.80;5.60;;;9.80;99.90;;;;;;5099934;27;20490;-75
2022/10/23 03:55:03;;;;;;;7.20;6.50;;;9.80;99.90;;;;;;5098879;28;20862;-74
2022/10/23 03:57:30;;;;;;;11.03;6.27;;;9.80;99.90;;;;;;5111658;27;20508;-74
2022/10/23 03:59:56;;;;;;;6.53;5.13;;;9.80;99.90;;;;;;5114123;28;20454;-75
2022/10/23 04:02:23;;;;;;;6.57;5.87;;;9.80;99.90;;;;;;5118429;27;20473;-74
2022/10/23 04:04:50;;;;;;;8.17;5.20;;;9.80;99.90;;;;;;5118642;27;20439;-74
2022/10/23 04:07:17;;;;;;;6.93;5.60;;;9.80;99.90;;;;;;5106998;27;20451;-74
2022/10/23 04:09:45;;;;;;;11.00;6.33;;;9.80;99.90;;;;;;5101313;28;20476;-75
2022/10/23 04:12:12;;;;;;;5.60;5.10;;;9.80;99.90;;;;;;5104979;27;20466;-74
2022/10/23 04:14:38;;;;;;;10.50;5.90;;;9.80;99.90;;;;;;5117861;27;20457;-74
2022/10/23 04:17:05;;;;;;;6.03;5.43;;;9.80;99.90;;;;;;5106997;27;20451;-74
2022/10/23 04:19:32;;;;;;;5.90;5.27;;;9.70;99.90;;;;;;5104071;28;20454;-74
2022/10/23 04:21:58;;;;;;;10.97;5.70;;;9.80;99.90;;;;;;5113842;28;20479;-74
2022/10/23 04:24:25;;;;;;;9.87;5.07;;;9.80;99.90;;;;;;5112267;27;20455;-74
2022/10/23 04:26:54;;;;;;;6.37;5.77;;;9.70;99.90;;;;;;5115213;28;20460;-75
2022/10/23 04:29:21;;;;;;;5.07;4.67;;;9.70;99.90;;;;;;5098742;27;20501;-75
2022/10/23 04:31:48;;;;;;;7.03;5.50;;;9.70;99.90;;;;;;5097439;28;20482;-74
2022/10/23 04:34:15;;;;;;;7.57;5.13;;;9.60;99.90;;;;;;5097909;28;20500;-74
2022/10/23 04:36:42;;;;;;;7.50;5.47;;;9.60;99.90;;;;;;5098033;28;20472;-74
2022/10/23 04:39:09;;;;;;;8.20;5.57;;;9.70;99.90;;;;;;5101619;28;20863;-74
2022/10/23 04:41:37;;;;;;;11.10;6.07;;;9.70;99.90;;;;;;5104932;28;20490;-74
2022/10/23 04:44:05;;;;;;;5.60;5.03;;;9.60;99.90;;;;;;5104381;28;20508;-74
2022/10/23 04:46:32;;;;;;;6.80;5.23;;;9.60;99.90;;;;;;5097629;28;20450;-74
2022/10/23 04:48:59;;;;;;;7.57;5.13;;;9.60;99.90;;;;;;5097479;28;21002;-75
2022/10/23 04:51:25;;;;;;;9.63;5.73;;;9.60;99.90;;;;;;5097204;28;20888;-75
2022/10/23 04:53:52;;;;;;;7.00;5.53;;;9.60;99.90;;;;;;5097811;28;20440;-75
2022/10/23 04:56:19;;;;;;;10.27;5.37;;;9.60;99.90;;;;;;5106107;28;20468;-75
2022/10/23 04:58:45;;;;;;;8.83;5.30;;;9.50;99.90;;;;;;5099946;28;20869;-75
2022/10/23 05:01:13;;;;;;;5.60;5.00;;;9.50;99.90;;;;;;5094175;28;20487;-75
2022/10/23 05:03:40;;;;;;;7.13;5.23;;;9.50;99.90;;;;;;5094220;28;20450;-75
2022/10/23 05:06:07;;;;;;;5.53;5.03;;;9.50;99.90;;;;;;5094400;28;20474;-74
2022/10/23 05:08:34;;;;;;;6.57;5.73;;;9.50;99.90;;;;;;5098667;28;20504;-75
2022/10/23 05:11:01;;;;;;;10.30;5.60;;;9.50;99.90;;;;;;5100854;28;20488;-75
2022/10/23 05:13:28;;;;;;;6.67;5.27;;;9.50;99.90;;;;;;5094118;28;20474;-75
2022/10/23 05:15:54;;;;;;;8.70;5.73;;;9.50;99.90;;;;;;5101649;28;20447;-75
2022/10/23 05:18:29;;;;;;;11.93;5.50;;;9.50;99.90;;;;;;5093567;28;20470;-75
2022/10/23 05:21:00;;;;;;;5.40;4.90;;;9.50;99.90;;;;;;5093307;28;20842;-74
2022/10/23 05:23:27;;;;;;;8.57;5.17;;;9.50;99.90;;;;;;5092668;28;20988;-74
2022/10/23 05:25:54;;;;;;;6.53;5.00;;;9.50;99.90;;;;;;5093829;28;20455;-74
2022/10/23 05:28:21;;;;;;;10.70;5.30;;;9.50;99.90;;;;;;5093228;28;20455;-74
2022/10/23 05:30:48;;;;;;;8.90;5.17;;;9.50;99.90;;;;;;5092689;28;20459;-75
2022/10/23 05:33:15;;;;;;;6.57;5.90;;;9.50;99.90;;;;;;5093708;28;20521;-75
2022/10/23 05:35:44;;;;;;;7.00;5.40;;;9.40;99.90;;;;;;5093432;28;20573;-75
2022/10/23 05:38:12;;;;;;;9.87;5.40;;;9.40;99.90;;;;;;5092884;28;20455;-75
2022/10/23 05:40:39;;;;;;;11.93;5.90;;;9.40;99.90;;;;;;5108758;28;20454;-75
2022/10/23 05:43:06;;;;;;;7.20;5.53;;;9.40;99.90;;;;;;5093160;28;20865;-74
2022/10/23 05:45:33;;;;;;;10.33;5.70;;;9.40;99.90;;;;;;5093674;28;20983;-74
2022/10/23 05:47:59;;;;;;;9.90;5.43;;;9.40;99.90;;;;;;5109186;28;20443;-74
2022/10/23 05:50:26;;;;;;;10.87;5.77;;;9.40;99.90;;;;;;5112840;28;20482;-74
2022/10/23 05:52:54;;;;;;;11.60;7.20;;;9.30;99.90;;;;;;5112113;27;20474;-76
2022/10/23 05:55:21;;;;;;;12.93;5.97;;;9.30;99.90;;;;;;5099649;28;20850;-76
2022/10/23 05:57:47;;;;;;;20.17;6.10;;;9.30;99.90;;;;;;5098226;28;20505;-76
2022/10/23 06:00:14;;;;;;;27.53;7.70;;;9.30;99.90;;;;;;5106856;28;20458;-77
2022/10/23 06:02:41;;;;;;;21.87;7.33;;;9.30;99.90;;;;;;5092898;28;20547;-78
2022/10/23 06:05:08;;;;;;;12.63;5.97;;;9.20;99.90;;;;;;5093090;28;20972;-77
2022/10/23 06:07:35;;;;;;;15.67;6.60;;;9.30;99.90;;;;;;5098257;28;20463;-77
2022/10/23 06:10:04;;;;;;;22.00;6.33;;;9.30;99.90;;;;;;5097995;28;20936;-77
2022/10/23 06:12:31;;;;;;;18.93;7.57;;;9.30;99.90;;;;;;5092818;28;20482;-78
2022/10/23 06:14:58;;;;;;;14.37;7.63;;;9.30;99.90;;;;;;5092930;28;20443;-76
2022/10/23 06:17:25;;;;;;;17.97;7.00;;;9.40;99.90;;;;;;5103917;28;20447;-77
2022/10/23 06:19:52;;;;;;;21.53;7.00;;;9.40;99.90;;;;;;5097796;28;20453;-76
2022/10/23 06:22:18;;;;;;;15.60;6.60;;;9.50;99.90;;;;;;5112767;28;20489;-77
2022/10/23 06:24:45;;;;;;;13.40;7.43;;;9.40;99.90;;;;;;5112961;28;20816;-76
2022/10/23 06:27:13;;;;;;;17.63;6.27;;;9.40;99.90;;;;;;5101670;28;20459;-76
2022/10/23 06:29:40;;;;;;;11.43;6.67;;;9.40;99.90;;;;;;5097288;28;20453;-76
2022/10/23 06:32:07;;;;;;;11.63;7.67;;;9.40;99.90;;;;;;5104221;28;20564;-76
2022/10/23 06:34:33;;;;;;;11.50;7.17;;;9.50;99.90;;;;;;5102790;28;20864;-76
2022/10/23 06:37:00;;;;;;;19.90;7.43;;;9.40;99.90;;;;;;5100602;28;20478;-77
2022/10/23 06:39:27;;;;;;;14.17;7.40;;;9.40;99.90;;;;;;5102395;28;20458;-77
2022/10/23 06:41:53;;;;;;;14.80;7.97;;;9.40;99.90;;;;;;5111722;28;20483;-76
2022/10/23 06:44:21;;;;;;;10.60;7.37;;;9.50;99.90;;;;;;5112777;28;20465;-77
2022/10/23 06:46:48;;;;;;;19.43;7.63;;;9.60;99.90;;;;;;5107349;28;20459;-76
2022/10/23 06:49:17;;;;;;;54.80;8.93;;;9.70;99.90;;;;;;5098212;28;20545;-77
2022/10/23 06:51:44;;;;;;;17.90;8.50;;;9.70;99.90;;;;;;5091707;28;20475;-77
2022/10/23 06:54:11;;;;;;;16.80;7.83;;;9.70;99.90;;;;;;5092479;28;20459;-74
2022/10/23 06:56:38;;;;;;;43.40;9.30;;;9.70;99.90;;;;;;5111661;28;20450;-77
2022/10/23 06:59:07;;;;;;;24.33;9.70;;;9.70;99.90;;;;;;5110681;27;20995;-76
2022/10/23 07:01:35;;;;;;;68.30;11.10;;;9.80;99.90;;;;;;5111048;28;20546;-77
2022/10/23 07:04:02;;;;;;;41.17;9.50;;;10.00;99.90;;;;;;5101116;28;20457;-77
2022/10/23 07:06:29;;;;;;;59.67;9.17;;;10.30;99.90;;;;;;5093910;28;21290;-77
2022/10/23 07:08:56;;;;;;;46.93;8.37;;;10.50;99.90;;;;;;5099051;28;20456;-77
2022/10/23 07:11:22;;;;;;;82.00;10.17;;;10.60;99.90;;;;;;5103130;28;20449;-77
2022/10/23 07:13:49;;;;;;;16.40;7.60;;;10.70;99.90;;;;;;5112263;28;20447;-76
2022/10/23 07:16:18;;;;;;;15.27;7.30;;;10.80;99.90;;;;;;5109977;28;20957;-76
2022/10/23 07:18:47;;;;;;;19.93;8.30;;;11.00;99.90;;;;;;5099589;28;20459;-77
2022/10/23 07:21:14;;;;;;;12.00;7.67;;;11.20;99.90;;;;;;5091187;28;20450;-77
2022/10/23 07:23:41;;;;;;;10.80;6.80;;;11.70;99.90;;;;;;5091178;28;20451;-77
2022/10/23 07:26:09;;;;;;;9.30;6.80;;;12.10;99.90;;;;;;5097073;28;20855;-77
2022/10/23 07:28:36;;;;;;;10.00;7.03;;;12.50;99.90;;;;;;5110660;28;20443;-77
2022/10/23 07:31:03;;;;;;;7.80;5.90;;;13.00;99.90;;;;;;5096654;28;20835;-78
2022/10/23 07:33:30;;;;;;;7.17;6.10;;;13.50;99.90;;;;;;5106661;28;20482;-78
2022/10/23 07:35:58;;;;;;;10.37;6.97;;;14.10;99.90;;;;;;5116283;28;20472;-77
2022/10/23 07:38:24;;;;;;;8.80;6.30;;;14.60;99.90;;;;;;5104768;28;21022;-77
2022/10/23 07:40:52;;;;;;;8.10;6.37;;;15.50;99.90;;;;;;5106104;28;20443;-77
2022/10/23 07:43:19;;;;;;;8.03;6.20;;;15.80;99.90;;;;;;5105258;28;21105;-78
2022/10/23 07:45:48;;;;;;;8.23;5.40;;;15.90;99.90;;;;;;5094078;28;20455;-78
2022/10/23 07:48:15;;;;;;;6.20;5.60;;;16.10;99.90;;;;;;5106669;28;20485;-77
2022/10/23 07:50:41;;;;;;;11.10;5.40;;;16.40;99.90;;;;;;5109674;28;20450;-77
2022/10/23 07:53:16;;;;;;;13.13;5.77;;;16.70;99.90;;;;;;5111663;28;20444;-77
2022/10/23 07:55:43;;;;;;;11.17;5.40;;;16.80;99.90;;;;;;5111404;28;20502;-77
2022/10/23 07:58:09;;;;;;;8.17;5.27;;;17.00;99.90;;;;;;5094888;28;20459;-76
2022/10/23 08:00:39;;;;;;;8.87;5.30;;;16.80;99.90;;;;;;5096192;28;20485;-78
2022/10/23 08:03:06;;;;;;;6.77;5.40;;;16.60;99.90;;;;;;5110631;28;20962;-77
2022/10/23 08:05:33;;;;;;;11.17;4.83;;;16.60;99.90;;;;;;5111415;28;20507;-77
2022/10/23 08:08:00;;;;;;;7.50;5.60;;;16.40;99.90;;;;;;5108557;28;20458;-78
2022/10/23 08:10:28;;;;;;;6.93;5.50;;;16.30;99.90;;;;;;5106208;28;20968;-78
2022/10/23 08:12:54;;;;;;;22.33;5.90;;;16.30;99.90;;;;;;5100460;28;20471;-78
2022/10/23 08:15:21;;;;;;;7.53;6.07;;;16.40;99.90;;;;;;5099026;28;20443;-78
2022/10/23 08:17:48;;;;;;;18.13;7.50;;;16.30;99.90;;;;;;5099943;28;20932;-78
2022/10/23 08:20:15;;;;;;;15.83;9.40;;;16.00;99.90;;;;;;5095274;28;20429;-74
2022/10/23 08:22:41;;;;;;;11.20;6.60;;;15.90;99.90;;;;;;5107939;28;20490;-74
2022/10/23 08:25:09;;;;;;;8.53;5.17;;;15.80;99.90;;;;;;5110305;28;20446;-78
2022/10/23 08:27:37;;;;;;;8.23;4.90;;;15.60;99.90;;;;;;5098205;28;20447;-77
2022/10/23 08:30:05;;;;;;;13.20;4.47;;;15.40;99.90;;;;;;5106329;28;20436;-77
2022/10/23 08:32:32;;;;;;;8.67;4.30;;;15.40;99.90;;;;;;5098362;28;20467;-76
2022/10/23 08:34:58;;;;;;;9.33;4.43;;;15.30;99.90;;;;;;5094675;28;20492;-77
2022/10/23 08:37:25;;;;;;;8.20;4.50;;;15.30;99.90;;;;;;5102185;28;20450;-76
2022/10/23 08:39:53;;;;;;;25.80;4.23;;;15.30;99.90;;;;;;5095101;28;20469;-76
2022/10/23 08:42:22;;;;;;;14.23;3.70;;;15.30;99.90;;;;;;5103870;28;20933;-76
2022/10/23 08:44:59;;;;;;;8.50;4.23;;;15.40;99.90;;;;;;5099545;28;20830;-77
2022/10/23 08:47:33;;;;;;;10.30;4.00;;;15.40;99.90;;;;;;5102858;28;20421;-76
2022/10/23 08:50:05;;;;;;;8.13;4.70;;;15.50;99.90;;;;;;5113801;28;20457;-77
2022/10/23 08:52:39;;;;;;;11.60;4.97;;;15.50;99.90;;;;;;5113814;28;20438;-76
2022/10/23 08:55:15;;;;;;;7.03;4.40;;;15.50;99.90;;;;;;5114586;28;20483;-76
2022/10/23 08:57:47;;;;;;;5.67;4.07;;;15.50;99.90;;;;;;5111737;27;20456;-77
2022/10/23 09:00:16;;;;;;;7.37;4.00;;;15.60;99.90;;;;;;5112388;28;20450;-76
2022/10/23 09:02:46;;;;;;;6.37;4.00;;;15.50;99.90;;;;;;5095632;28;20479;-76
2022/10/23 09:05:16;;;;;;;5.43;4.27;;;15.60;99.90;;;;;;5100630;28;20443;-76
2022/10/23 09:07:55;;;;;;;7.23;3.97;;;15.60;99.90;;;;;;5102419;28;20500;-78
2022/10/23 09:11:09;;;;;;;6.87;3.97;;;15.70;99.90;;;;;;5096999;28;20442;-77
2022/10/23 09:13:50;;;;;;;7.80;4.50;;;15.60;99.90;;;;;;5080194;28;20507;-77
2022/10/23 09:16:31;;;;;;;4.87;4.40;;;15.40;99.90;;;;;;5098416;28;20440;-76
2022/10/23 09:18:58;;;;;;;10.20;4.37;;;15.20;99.90;;;;;;5095299;28;20498;-77
2022/10/23 09:21:27;;;;;;;5.97;4.03;;;15.00;99.90;;;;;;5113728;28;20499;-77
2022/10/23 09:23:53;;;;;;;9.03;4.30;;;14.80;99.90;;;;;;5095192;28;20478;-76
2022/10/23 09:26:20;;;;;;;10.97;4.73;;;14.70;99.90;;;;;;5097006;28;20447;-77
2022/10/23 09:28:50;;;;;;;11.47;4.97;;;14.50;99.90;;;;;;5101658;28;21008;-78
2022/10/23 09:31:18;;;;;;;9.97;4.63;;;14.40;99.90;;;;;;5094357;28;20459;-77
2022/10/23 09:33:58;;;;;;;7.43;3.70;;;14.40;99.90;;;;;;5096276;28;20454;-76
2022/10/23 09:36:27;;;;;;;6.40;4.60;;;14.20;99.90;;;;;;5108623;28;20955;-77
2022/10/23 09:38:57;;;;;;;7.80;4.90;;;14.20;99.90;;;;;;5110667;28;20450;-76
2022/10/23 09:41:28;;;;;;;9.33;5.23;;;14.20;99.90;;;;;;5096616;28;20980;-76
2022/10/23 09:44:18;;;;;;;7.37;4.87;;;14.30;99.90;;;;;;5107206;28;20516;-77
2022/10/23 09:46:46;;;;;;;6.17;4.60;;;14.30;99.90;;;;;;5111294;28;20433;-76
2022/10/23 09:49:22;;;;;;;10.50;5.00;;;14.30;99.90;;;;;;5092791;28;20454;-76
2022/10/23 09:51:59;;;;;;;7.77;4.73;;;14.20;99.90;;;;;;5092050;28;20474;-77
2022/10/23 09:54:26;;;;;;;8.03;4.60;;;14.20;99.90;;;;;;5093048;28;20455;-76
2022/10/23 09:56:54;;;;;;;9.37;4.40;;;14.20;99.90;;;;;;5107569;28;20804;-78
2022/10/23 09:59:25;;;;;;;13.60;6.00;;;14.20;99.90;;;;;;5104436;28;20492;-77
2022/10/23 10:01:54;;;;;;;7.93;5.03;;;14.20;99.90;;;;;;5108735;28;20470;-79
2022/10/23 10:04:33;;;;;;;7.00;4.43;;;14.20;99.90;;;;;;5113340;28;20489;-77
2022/10/23 10:07:03;;;;;;;7.10;4.57;;;14.20;99.90;;;;;;5109532;28;20459;-77
2022/10/23 10:09:29;;;;;;;19.63;5.10;;;14.20;99.90;;;;;;5093011;28;20455;-78
2022/10/23 10:12:00;;;;;;;6.57;4.83;;;14.30;99.90;;;;;;5094511;28;20516;-74
2022/10/23 10:14:40;;;;;;;4.57;4.17;;;14.30;99.90;;;;;;5112972;28;20449;-78
2022/10/23 10:17:17;;;;;;;7.60;4.87;;;14.30;99.90;;;;;;5092598;28;20953;-77
2022/10/23 10:19:59;;;;;;;7.40;4.33;;;14.30;99.90;;;;;;5092052;28;20447;-77
2022/10/23 10:22:33;;;;;;;8.47;5.20;;;14.40;99.90;;;;;;5106484;28;20513;-77
2022/10/23 10:25:08;;;;;;;9.87;4.27;;;14.40;99.90;;;;;;5112042;28;20457;-77
2022/10/23 10:27:49;;;;;;;5.63;4.53;;;14.50;99.90;;;;;;5111537;28;20958;-77
2022/10/23 10:30:18;;;;;;;7.10;4.40;;;14.70;99.90;;;;;;5106005;28;20866;-76
2022/10/23 10:32:50;;;;;;;6.43;4.00;;;14.70;99.90;;;;;;5108395;28;20466;-76
2022/10/23 10:35:28;;;;;;;6.30;4.00;;;14.80;99.90;;;;;;5113045;28;20449;-76
2022/10/23 10:38:06;;;;;;;6.50;4.40;;;14.90;99.90;;;;;;5112087;28;20825;-76
2022/10/23 10:40:38;;;;;;;6.30;4.10;;;14.80;99.90;;;;;;5094364;28;20475;-77
2022/10/23 10:43:23;;;;;;;9.33;4.23;;;14.80;99.90;;;;;;5092217;28;20487;-78
2022/10/23 10:45:59;;;;;;;8.60;3.83;;;14.90;99.90;;;;;;5091896;28;20451;-78
2022/10/23 10:48:42;;;;;;;6.70;4.20;;;14.90;99.90;;;;;;5103498;28;20953;-76
2022/10/23 10:51:18;;;;;;;6.47;3.97;;;15.00;99.90;;;;;;5092328;28;20451;-76
2022/10/23 10:53:59;;;;;;;7.70;4.67;;;15.10;99.90;;;;;;5090274;28;20459;-78
2022/10/23 10:56:29;;;;;;;6.53;3.60;;;15.20;99.90;;;;;;5103253;28;20433;-74
2022/10/23 10:59:00;;;;;;;4.40;4.00;;;15.20;99.90;;;;;;5101983;28;20447;-74
2022/10/23 11:01:32;;;;;;;5.80;3.63;;;15.20;99.90;;;;;;5112044;28;20501;-74
2022/10/23 11:04:06;;;;;;;4.07;3.57;;;15.30;99.90;;;;;;5106517;28;20483;-75
2022/10/23 11:06:36;;;;;;;10.00;4.00;;;15.30;99.90;;;;;;5092446;28;20455;-74
2022/10/23 11:09:14;;;;;;;6.13;3.67;;;15.30;99.90;;;;;;5092041;28;20436;-74
2022/10/23 11:11:40;;;;;;;5.50;3.70;;;15.40;99.90;;;;;;5094867;28;20475;-74
2022/10/23 11:14:15;;;;;;;6.20;4.00;;;15.50;99.90;;;;;;5091862;28;20426;-75
2022/10/23 11:16:46;;;;;;;4.90;4.00;;;15.50;99.90;;;;;;5091820;28;20493;-75
2022/10/23 11:19:17;;;;;;;5.47;3.70;;;15.50;99.90;;;;;;5091553;28;20450;-74
2022/10/23 11:21:53;;;;;;;4.23;3.83;;;15.50;99.90;;;;;;5091596;28;20438;-75
2022/10/23 11:25:07;;;;;;;6.13;4.40;;;15.50;99.90;;;;;;5103684;28;20493;-76
2022/10/23 11:27:48;;;;;;;7.87;4.50;;;15.50;99.90;;;;;;5091864;28;20440;-77
2022/10/23 11:30:22;;;;;;;4.47;4.07;;;15.50;99.90;;;;;;5093023;28;20438;-77
2022/10/23 11:33:30;;;;;;;6.17;4.20;;;15.40;99.90;;;;;;5091400;28;20486;-76
2022/10/23 11:36:14;;;;;;;5.40;4.03;;;15.40;99.90;;;;;;5091785;28;20447;-76
2022/10/23 11:38:43;;;;;;;9.90;3.93;;;15.40;99.90;;;;;;5093988;28;20451;-76
2022/10/23 11:41:19;;;;;;;4.50;3.77;;;15.40;99.90;;;;;;5103788;28;20448;-75
2022/10/23 11:43:51;;;;;;;9.33;3.77;;;15.40;99.90;;;;;;5091099;28;20490;-73
2022/10/23 11:46:30;;;;;;;6.00;4.20;;;15.40;99.90;;;;;;5095134;28;20429;-76
2022/10/23 11:49:01;;;;;;;4.70;3.60;;;15.40;99.90;;;;;;5111636;28;20210;-76
2022/10/23 11:51:30;;;;;;;4.30;3.77;;;15.40;99.90;;;;;;5102995;28;20455;-76
2022/10/23 11:54:25;;;;;;;3.97;3.67;;;15.50;99.90;;;;;;5091116;28;20422;-77
2022/10/23 11:56:55;;;;;;;8.53;4.30;;;15.60;99.90;;;;;;5108010;28;20456;-76
2022/10/23 11:59:27;;;;;;;4.20;3.80;;;15.70;99.90;;;;;;5110617;28;20780;-77
2022/10/23 12:01:56;;;;;;;6.10;3.53;;;16.00;99.90;;;;;;5108106;28;20873;-76
2022/10/23 12:04:26;;;;;;;6.10;3.40;;;16.10;99.90;;;;;;5090754;28;20941;-77
2022/10/23 12:06:55;;;;;;;8.90;4.00;;;16.20;99.90;;;;;;5111865;28;20253;-76
2022/10/23 12:09:28;;;;;;;5.23;3.87;;;16.20;99.90;;;;;;5114063;28;20451;-75
2022/10/23 12:12:13;;;;;;;9.87;3.50;;;16.10;99.90;;;;;;5114117;28;20474;-74
2022/10/23 12:14:42;;;;;;;5.80;3.57;;;16.10;99.90;;;;;;5095721;28;20542;-75
2022/10/23 12:17:32;;;;;;;6.57;3.37;;;16.10;99.90;;;;;;5095892;28;20451;-73
2022/10/23 12:20:19;;;;;;;5.13;3.70;;;16.20;99.90;;;;;;5108003;28;20454;-73
2022/10/23 12:22:50;;;;;;;1999.90;999.90;;;16.30;99.90;;;;;;5114238;28;20498;-75
2022/10/23 12:25:28;;;;;;;16.95;11.07;;;16.30;99.90;;;;;;5112948;28;20422;-74
2022/10/23 12:28:01;;;;;;;4.60;3.90;;;16.30;99.90;;;;;;5113559;28;20197;-74
2022/10/23 12:30:36;;;;;;;5.93;3.60;;;16.30;99.90;;;;;;5115128;28;20504;-74
2022/10/23 12:33:13;;;;;;;5.17;4.00;;;16.30;99.90;;;;;;5112728;28;20470;-76
2022/10/23 12:36:21;;;;;;;6.87;3.70;;;16.30;99.90;;;;;;5101321;28;20432;-73
2022/10/23 12:38:49;;;;;;;5.63;4.10;;;16.30;99.90;;;;;;5100074;28;20973;-73
2022/10/23 12:41:22;;;;;;;5.20;4.00;;;16.30;99.90;;;;;;5094433;28;20443;-73
2022/10/23 12:43:53;;;;;;;8.40;5.73;;;16.40;99.90;;;;;;5094703;28;20458;-74
2022/10/23 12:46:31;;;;;;;23.87;10.70;;;16.50;99.90;;;;;;5094828;28;20487;-70
2022/10/23 12:48:59;;;;;;;3.70;3.40;;;16.60;99.90;;;;;;5108931;28;20479;-74
2022/10/23 12:51:28;;;;;;;12.13;3.97;;;16.70;99.90;;;;;;5114418;28;20948;-72
2022/10/23 12:53:55;;;;;;;5.80;3.93;;;17.10;99.90;;;;;;5115069;28;20431;-75
2022/10/23 12:56:24;;;;;;;3.90;3.60;;;17.70;99.90;;;;;;5114227;28;20458;-74
2022/10/23 12:58:54;;;;;;;5.30;4.00;;;18.00;99.90;;;;;;5098195;28;20426;-75
2022/10/23 13:01:26;;;;;;;3.90;3.60;;;18.60;99.90;;;;;;5095680;28;20469;-74
2022/10/23 13:03:58;;;;;;;10.53;3.67;;;19.00;99.90;;;;;;5114488;28;20864;-72